Lakeview, OR (97630)

8:28 AM PST on December 03, 2016 (GMT -0800)
Agrisea's Weather Station - Northside | | Change Station

Elev 4800 ft 42.20 °N, 120.35 °W | Updated 20 seconds ago

Overcast
Overcast
34.3 °F
Feels Like 34 °F
N
0.0
Wind Variable Wind from East
Gusts 6.3 mph

Today
High -- | Low -- °F
--% Chance of Precip.
Yesterday
High -- | Low -- °F
Precip. -- in
Pressure 30.33 in
Visibility 10.0 miles
Clouds Overcast 1900 ft
Windchill 34 °F
Dew Point 24 °F
Humidity 67%
Rainfall 0.00 in
Snow Depth Not available.
7:13 AM 4:29 PM
Waxing Crescent, 15% visible
METAR KLKV 031615Z 17006KT 10SM OVC019 01/M03 A3033 RMK AO1
Pressure 30.33 in
Visibility 10.0 miles
Clouds Overcast 1900 ft
Windchill 34 °F
Dew Point 24 °F
Humidity 67%
Rainfall 0.00 in
Snow Depth Not available.
7:13 AM 4:29 PM
Waxing Crescent, 15% visible
METAR KLKV 031615Z 17006KT 10SM OVC019 01/M03 A3033 RMK AO1

10-Day Weather Forecast

Almanac

Astronomy

Dec. 03, 2016 Rise Set
Actual Time
Civil Twilight
Nautical Twilight
Astronomical Twilight
Moon
Length of Visible Light
Length of Day
Tomorrow will be .
, % of the Moon is Illuminated

Today's Extremes

State Highs State Lows

Community

WunderPhotos

Upload Photos

1,955,439 photos uploaded!

WunderBlog® & News

Nearby

Air Quality

  Air Quality AQ Index Pollutant
Not available.

Snow Depth

Station Depth Elevation

Earthquake Activity

City Distance Mag. Time & Date
Minimum magnitude displayed is 2.5.

Coastal Water Temperatures

Place Temperature

Stations

Nearby Weather Stations

Station Location Temp. Windchill Dew Point Humidity Wind Precip. Elev Updated Type
                   

Watches & Warnings

There are currently no watches in effect.